Stormwatcher's Retreat Logo




                  Temp     Hi    Low   Out    Dew  Wind  Wind   Wind    Hi    Hi   Wind   Heat    THW   THSW                Rain  Solar   Solar Hi Solar   UV    UV    Hi     Heat    Cool    In     In    In     In     In   In Air          Wind  Wind    ISS   Arc.
  Date    Time     Out   Temp   Temp   Hum    Pt. Speed   Dir    Run Speed   Dir  Chill  Index  Index  Index   Bar    Rain  Rate   Rad.  Energy    Rad.  Index  Dose   UV     D-D     D-D    Temp   Hum    Dew   Heat    EMC Density     ET   Samp   Tx   Recept  Int.
------------------------------------------------------------------------------------------------------------------------------------------------------------------------------------------------------------------------------------------------------------------------
 8/16/18 12:10a   59.2   59.2   59.1    98   58.6   2.0   ENE   0.33   5.0   ENE   59.2   59.7   59.7   57.6  30.020  0.00  0.00     0     0.00      0     0.0  0.00   0.0   0.040   0.000   73.8    58   58.1   74.2  10.60  .0734    0.000   212    5    100.0   10 
 8/16/18 12:20a   59.1   59.2   59.1    98   58.5   3.0   ENE   0.50   8.0   ENE   59.1   59.6   59.6   57.5  30.020  0.00  0.00     0     0.00      0     0.0  0.00   0.0   0.041   0.000   73.7    58   58.0   74.1  10.60  .0734    0.000   212    5    100.0   10 
 8/16/18 12:30a   59.1   59.1   59.1    98   58.5   3.0   ENE   0.50   8.0   ENE   59.1   59.6   59.6   57.5  30.022  0.00  0.00     0     0.00      0     0.0  0.00   0.0   0.041   0.000   73.7    58   58.0   74.1  10.60  .0734    0.000   212    5    100.0   10 
 8/16/18 12:40a   59.1   59.1   59.1    98   58.5   3.0   ENE   0.50   6.0   ENE   59.1   59.6   59.6   57.5  30.026  0.00  0.00     0     0.00      0     0.0  0.00   0.0   0.041   0.000   73.6    58   57.9   74.0  10.61  .0735    0.000   213    5    100.0   10 
 8/16/18 12:50a   59.1   59.1   59.1    98   58.5   3.0   ENE   0.50   6.0    NE   59.1   59.6   59.6   57.5  30.026  0.00  0.00     0     0.00      0     0.0  0.00   0.0   0.041   0.000   73.6    58   57.9   74.0  10.61  .0735    0.000   211    5    100.0   10 
 8/16/18  1:00a   59.1   59.1   59.0    98   58.5   4.0   ENE   0.67   9.0    NE   59.1   59.6   59.6   57.5  30.024  0.00  0.00     0     0.00      0     0.0  0.00   0.0   0.041   0.000   73.5    58   57.8   73.9  10.61  .0735    0.000   210    5    100.0   10 
 8/16/18  1:10a   59.0   59.1   59.0    98   58.4   3.0   ENE   0.50   9.0     E   59.0   59.5   59.5   57.4  30.026  0.00  0.00     0     0.00      0     0.0  0.00   0.0   0.042   0.000   73.4    58   57.7   73.7  10.61  .0735    0.000   209    5    100.0   10 
 8/16/18  1:20a   59.1   59.1   59.0    98   58.5   4.0   ENE   0.67   8.0   ENE   59.1   59.6   59.6   57.5  30.028  0.00  0.00     0     0.00      0     0.0  0.00   0.0   0.041   0.000   73.3    58   57.6   73.6  10.62  .0735    0.000   212    5    100.0   10 
 8/16/18  1:30a   59.1   59.1   59.0    98   58.5   4.0   ENE   0.67   9.0   ENE   59.1   59.6   59.6   57.5  30.029  0.00  0.00     0     0.00      0     0.0  0.00   0.0   0.041   0.000   73.3    58   57.6   73.6  10.62  .0735    0.000   208    5    100.0   10 
 8/16/18  1:40a   59.1   59.1   59.1    98   58.5   3.0   ENE   0.50   8.0   ENE   59.1   59.6   59.6   57.5  30.031  0.00  0.00     0     0.00      0     0.0  0.00   0.0   0.041   0.000   73.2    59   58.0   73.6  10.82  .0735    0.000   211    5    100.0   10 
 8/16/18  1:50a   59.1   59.2   59.1    98   58.5   3.0   ENE   0.50   8.0   ENE   59.1   59.6   59.6   57.5  30.032  0.00  0.00     0     0.00      0     0.0  0.00   0.0   0.041   0.000   73.1    59   57.9   73.4  10.83  .0736    0.000   212    5    100.0   10 
 8/16/18  2:00a   59.2   59.2   59.1    98   58.6   4.0   ENE   0.67   9.0   ENE   59.2   59.7   59.7   57.6  30.032  0.00  0.00     0     0.00      0     0.0  0.00   0.0   0.040   0.000   73.0    59   57.8   73.3  10.83  .0736    0.000   211    5    100.0   10 
 8/16/18  2:10a   59.2   59.2   59.2    98   58.6   4.0   ENE   0.67  11.0   ENE   59.2   59.7   59.7   57.6  30.035  0.00  0.00     0     0.00      0     0.0  0.00   0.0   0.040   0.000   73.0    59   57.8   73.3  10.83  .0736    0.000   213    5    100.0   10 
 8/16/18  2:20a   59.1   59.3   59.1    97   58.2   4.0   ENE   0.67   9.0    NE   59.1   59.5   59.5   57.4  30.037  0.00  0.00     0     0.00      0     0.0  0.00   0.0   0.041   0.000   72.9    59   57.7   73.2  10.83  .0736    0.000   211    5    100.0   10 
 8/16/18  2:30a   59.1   59.1   59.0    98   58.5   3.0   ENE   0.50   5.0   ENE   59.1   59.6   59.6   57.5  30.038  0.00  0.00     0     0.00      0     0.0  0.00   0.0   0.041   0.000   72.8    59   57.6   73.0  10.84  .0736    0.000   209    5    100.0   10 
 8/16/18  2:40a   59.1   59.1   59.0    98   58.5   3.0   ENE   0.50  10.0   ENE   59.1   59.6   59.6   57.5  30.039  0.00  0.00     0     0.00      0     0.0  0.00   0.0   0.041   0.000   72.8    59   57.6   73.0  10.84  .0736    0.000   213    5    100.0   10 
 8/16/18  2:50a   59.0   59.1   58.9    97   58.2   4.0   ENE   0.67   7.0   ENE   59.0   59.4   59.4   57.3  30.038  0.00  0.00     0     0.00      0     0.0  0.00   0.0   0.042   0.000   72.7    59   57.5   72.9  10.84  .0736    0.000   210    5    100.0   10 
 8/16/18  3:00a   59.0   59.0   58.9    97   58.2   3.0   ENE   0.50   5.0    NE   59.0   59.4   59.4   57.3  30.039  0.00  0.00     0     0.00      0     0.0  0.00   0.0   0.042   0.000   72.7    59   57.5   72.9  10.84  .0736    0.000   209    5    100.0   10 
 8/16/18  3:10a   58.8   59.0   58.8    97   58.0   3.0    NE   0.50   6.0   NNE   58.8   59.2   59.2   57.0  30.041  0.00  0.00     0     0.00      0     0.0  0.00   0.0   0.043   0.000   72.6    59   57.4   72.7  10.85  .0737    0.000   211    5    100.0   10 
 8/16/18  3:20a   58.8   58.8   58.7    97   58.0   3.0   ENE   0.50   7.0     E   58.8   59.2   59.2   57.0  30.043  0.00  0.00     0     0.00      0     0.0  0.00   0.0   0.043   0.000   72.5    59   57.4   72.6  10.85  .0737    0.000   213    5    100.0   10 
 8/16/18  3:30a   58.8   58.8   58.7    97   58.0   3.0   ENE   0.50   7.0    NE   58.8   59.2   59.2   57.0  30.045  0.00  0.00     0     0.00      0     0.0  0.00   0.0   0.043   0.000   72.4    59   57.3   72.4  10.85  .0737    0.000   210    5    100.0   10 
 8/16/18  3:40a   58.8   58.8   58.7    97   58.0   3.0   ENE   0.50   7.0   ENE   58.8   59.2   59.2   57.0  30.043  0.00  0.00     0     0.00      0     0.0  0.00   0.0   0.043   0.000   72.3    59   57.2   72.3  10.86  .0737    0.000   213    5    100.0   10 
 8/16/18  3:50a   58.9   58.9   58.8    98   58.3   2.0   ENE   0.33   5.0   ENE   58.9   59.4   59.4   57.3  30.042  0.00  0.00     0     0.00      0     0.0  0.00   0.0   0.042   0.000   72.3    59   57.2   72.3  10.86  .0737    0.000   210    5    100.0   10 
 8/16/18  4:00a   58.9   58.9   58.8    98   58.3   3.0   ENE   0.50   7.0   ENE   58.9   59.4   59.4   57.3  30.046  0.00  0.00     0     0.00      0     0.0  0.00   0.0   0.042   0.000   72.2    59   57.1   72.1  10.86  .0738    0.000   212    5    100.0   10 
 8/16/18  4:10a   58.8   58.9   58.8    97   58.0   2.0   ENE   0.33   5.0   ENE   58.8   59.2   59.2   57.0  30.044  0.00  0.00     0     0.00      0     0.0  0.00   0.0   0.043   0.000   72.3    59   57.2   72.3  10.86  .0737    0.000   213    5    100.0   10 
 8/16/18  4:20a   58.6   58.8   58.6    97   57.8   2.0    NE   0.33   5.0   NNE   58.6   59.0   59.0   56.8  30.045  0.00  0.00     0     0.00      0     0.0  0.00   0.0   0.044   0.000   72.2    59   57.1   72.1  10.86  .0738    0.000   212    5    100.0   10 
 8/16/18  4:30a   58.2   58.6   58.2    97   57.4   5.0    NE   0.83  10.0   NNE   57.8   58.6   58.2   56.0  30.049  0.00  0.00     0     0.00      0     0.0  0.00   0.0   0.047   0.000   72.2    59   57.1   72.1  10.86  .0738    0.000   213    5    100.0   10 
 8/16/18  4:40a   58.2   58.3   58.2    97   57.4   5.0    NE   0.83  11.0    NE   57.8   58.6   58.2   56.0  30.050  0.00  0.00     0     0.00      0     0.0  0.00   0.0   0.047   0.000   72.0    59   56.9   71.8  10.87  .0738    0.000   212    5    100.0   10 
 8/16/18  4:50a   58.2   58.2   58.2    98   57.6   5.0    NE   0.83  11.0    NE   57.8   58.6   58.2   56.0  30.052  0.00  0.00     0     0.00      0     0.0  0.00   0.0   0.047   0.000   71.8    59   56.7   71.5  10.88  .0738    0.000   211    5    100.0   10 
 8/16/18  5:00a   58.0   58.2   58.0    97   57.2   6.0    NE   1.00  11.0   NNE   57.2   58.3   57.5   55.3  30.051  0.00  0.00     0     0.00      0     0.0  0.00   0.0   0.049   0.000   71.6    59   56.5   71.3  10.89  .0739    0.000   211    5    100.0   10 
 8/16/18  5:10a   58.0   58.0   58.0    97   57.2   5.0   ENE   0.83  10.0   ENE   57.6   58.3   57.9   55.7  30.051  0.00  0.00     0     0.00      0     0.0  0.00   0.0   0.049   0.000   71.4    60   56.8   71.1  11.02  .0739    0.000   207    5    100.0   10 
 8/16/18  5:20a   58.2   58.2   58.0    98   57.6   5.0   ENE   0.83  11.0     E   57.8   58.6   58.2   56.0  30.051  0.00  0.00     0     0.00      0     0.0  0.00   0.0   0.047   0.000   71.3    60   56.7   70.9  11.02  .0739    0.000   207    5    100.0   10 
 8/16/18  5:30a   58.2   58.2   58.1    97   57.4   6.0   ENE   1.00  13.0    NE   57.4   58.6   57.8   55.6  30.054  0.00  0.00     0     0.00      0     0.0  0.00   0.0   0.047   0.000   71.2    60   56.6   70.8  11.03  .0739    0.000   210    5    100.0   10 
 8/16/18  5:40a   58.2   58.2   58.1    97   57.4   6.0   ENE   1.00  13.0    NE   57.4   58.6   57.8   55.6  30.054  0.00  0.00     0     0.00      0     0.0  0.00   0.0   0.047   0.000   70.9    60   56.3   70.4  11.03  .0740    0.000   212    5    100.0   10 
 8/16/18  5:50a   58.1   58.2   58.1    97   57.3   5.0   ENE   0.83  11.0   ENE   57.7   58.4   58.0   55.8  30.055  0.00  0.00     0     0.00      0     0.0  0.00   0.0   0.048   0.000   70.8    60   56.2   70.2  11.03  .0740    0.000   211    5    100.0   10 
 8/16/18  6:00a   58.0   58.1   58.0    97   57.2   6.0   ENE   1.00  10.0   ENE   57.2   58.3   57.5   55.3  30.057  0.00  0.00     0     0.00      0     0.0  0.00   0.0   0.049   0.000   70.7    60   56.1   70.1  11.04  .0740    0.000   212    5    100.0   10 
 8/16/18  6:10a   57.9   58.0   57.9    98   57.3   6.0   ENE   1.00  14.0   ENE   57.1   58.3   57.5   55.3  30.058  0.00  0.00     0     0.00      0     0.0  0.00   0.0   0.049   0.000   70.5    60   55.9   69.8  11.04  .0741    0.000   213    5    100.0   10 
 8/16/18  6:20a   57.9   57.9   57.9    98   57.3   5.0   ENE   0.83  10.0   ENE   57.5   58.3   57.9   55.7  30.062  0.00  0.00     0     0.00      0     0.0  0.00   0.0   0.049   0.000   70.4    60   55.8   69.7  11.04  .0741    0.000   212    5    100.0   10 
 8/16/18  6:30a   57.8   57.9   57.8    98   57.2   7.0   ENE   1.17  13.0   ENE   56.6   58.2   57.0   54.8  30.063  0.00  0.00     0     0.00      0     0.0  0.00   0.0   0.050   0.000   70.3    61   56.2   69.7  11.24  .0741    0.000   213    5    100.0   10 
 8/16/18  6:40a   57.8   57.8   57.8    98   57.2   6.0   ENE   1.00  12.0    NE   57.0   58.2   57.4   55.3  30.067  0.00  0.00     1     0.01      5     0.0  0.00   0.0   0.050   0.000   70.2    61   56.1   69.6  11.24  .0741    0.000   212    5    100.0   10 
 8/16/18  6:50a   57.7   57.8   57.7    98   57.1   6.0   ENE   1.00  13.0   ENE   56.8   58.0   57.1   55.1  30.069  0.00  0.00     8     0.11      9     0.0  0.00   0.0   0.051   0.000   70.1    61   56.0   69.4  11.25  .0741    0.000   212    5    100.0   10 
 8/16/18  7:00a   57.7   57.7   57.7    98   57.1   5.0   ENE   0.83  13.0   ENE   57.2   58.0   57.5   56.4  30.075  0.00  0.00    14     0.20     18     0.0  0.00   0.0   0.051   0.000   70.1    61   56.0   69.4  11.25  .0742    0.000   213    5    100.0   10 
 8/16/18  7:10a   57.6   57.7   57.6    97   56.8   7.0   ENE   1.17  14.0   ENE   56.3   57.9   56.6   55.7  30.076  0.00  0.00    19     0.27     21     0.0  0.00   0.0   0.051   0.000   70.0    61   55.9   69.3  11.25  .0742    0.000   212    5    100.0   10 
 8/16/18  7:20a   57.6   57.6   57.5    97   56.8   8.0   ENE   1.33  15.0     N   55.6   57.9   55.9   55.2  30.078  0.00  0.00    25     0.36     32     0.0  0.00   0.0   0.051   0.000   69.9    61   55.8   69.2  11.25  .0742    0.000   212    5    100.0   10 
 8/16/18  7:30a   57.6   57.7   57.6    97   56.8   7.0   ENE   1.17  14.0    NE   56.3   57.9   56.6   56.3  30.081  0.00  0.00    33     0.47     37     0.0  0.00   0.0   0.051   0.000   69.7    61   55.6   69.1  11.25  .0743    0.000   213    5    100.0   10 
 8/16/18  7:40a   57.6   57.6   57.6    97   56.8   8.0   ENE   1.33  12.0     N   55.6   57.9   55.9   55.7  30.087  0.00  0.00    38     0.54     39     0.0  0.00   0.0   0.051   0.000   69.6    61   55.6   69.0  11.25  .0743    0.000   213    5    100.0   10 
 8/16/18  7:50a   57.7   57.7   57.6    97   56.9   7.0   ENE   1.17  14.0   ENE   56.4   58.0   56.7   56.8  30.090  0.00  0.00    46     0.66     47     0.0  0.00   0.0   0.051   0.000   69.6    61   55.6   69.0  11.25  .0743    0.000   208    5    100.0   10 
 8/16/18  8:00a   57.6   57.7   57.6    97   56.8   7.0   ENE   1.17  11.0   NNE   56.3   57.9   56.6   57.2  30.092  0.00  0.00    59     0.85     63     0.0  0.00   0.0   0.051   0.000   69.6    61   55.6   69.0  11.25  .0743    0.001   208    5    100.0   10 
 8/16/18  8:10a   57.6   57.7   57.6    97   56.8   6.0   ENE   1.00  12.0     E   56.7   57.9   57.0   57.7  30.093  0.00  0.00    65     0.93     69     0.0  0.00   0.0   0.051   0.000   69.7    61   55.6   69.1  11.25  .0743    0.000   203    5     98.1   10 
 8/16/18  8:20a   57.6   57.7   57.6    97   56.8   5.0   ENE   0.83  10.0     E   57.1   57.9   57.4   58.3  30.093  0.00  0.00    73     1.05     77     0.0  0.00   0.0   0.051   0.000   69.8    61   55.7   69.1  11.25  .0743    0.000   210    5    100.0   10 
 8/16/18  8:30a   57.6   57.6   57.6    97   56.8   5.0   ENE   0.83  10.0    NE   57.1   57.9   57.4   58.5  30.095  0.00  0.00    81     1.16     84     0.0  0.00   0.0   0.051   0.000   69.9    61   55.8   69.2  11.25  .0743    0.000   213    5    100.0   10 
 8/16/18  8:40a   57.6   57.7   57.5    97   56.8   7.0    NE   1.17  13.0   ENE   56.3   57.9   56.6   57.9  30.096  0.00  0.00    88     1.26     90     0.0  0.00   0.0   0.051   0.000   70.0    61   55.9   69.3  11.25  .0742    0.000   210    5    100.0   10 
 8/16/18  8:50a   57.7   57.7   57.6    97   56.9   8.0   ENE   1.33  14.0   NNE   55.7   58.0   56.0   57.1  30.101  0.00  0.00    90     1.29     95     0.0  0.00   0.0   0.051   0.000   70.1    61   56.0   69.4  11.25  .0742    0.000   211    5    100.0   10 
 8/16/18  9:00a   57.8   57.9   57.7    97   57.0   6.0   ENE   1.00  12.0   ENE   57.0   58.1   57.3   58.8  30.102  0.00  0.00   102     1.46    109     0.0  0.00   0.0   0.050   0.000   70.1    61   56.0   69.4  11.25  .0742    0.002   213    5    100.0   10 
 8/16/18  9:10a   57.9   57.9   57.8    97   57.1   5.0    NE   0.83  10.0   NNE   57.5   58.2   57.8   59.8  30.100  0.00  0.00   118     1.69    123     0.0  0.00   0.0   0.049   0.000   70.1    61   56.0   69.4  11.25  .0742    0.000   213    5    100.0   10 
 8/16/18  9:20a   58.1   58.1   57.9    97   57.3   4.0    NE   0.67  10.0    NE   58.1   58.4   58.4   60.7  30.101  0.00  0.00   133     1.91    144     0.0  0.00   0.0   0.048   0.000   70.3    61   56.2   69.7  11.24  .0742    0.000   211    5    100.0   10 
 8/16/18  9:30a   58.3   58.3   58.1    97   57.5   4.0   ENE   0.67   9.0     E   58.3   58.7   58.7   61.8  30.103  0.00  0.00   165     2.37    183     0.0  0.00   0.0   0.047   0.000   70.4    61   56.3   69.8  11.23  .0742    0.000   213    5    100.0   10 
 8/16/18  9:40a   58.5   58.5   58.2    96   57.4   5.0   ENE   0.83  10.0    NE   58.2   58.9   58.6   62.0  30.104  0.00  0.00   178     2.55    186     0.0  0.00   0.0   0.045   0.000   70.5    61   56.4   69.9  11.23  .0742    0.000   209    5    100.0   10 
 8/16/18  9:50a   58.4   58.5   58.4    96   57.3   7.0   ENE   1.17  14.0   NNE   57.3   58.8   57.7   60.7  30.107  0.00  0.00   168     2.41    174     0.0  0.00   0.0   0.046   0.000   70.5    61   56.4   69.9  11.23  .0742    0.000   211    5    100.0   10 
 8/16/18 10:00a   58.4   58.4   58.3    96   57.3   6.0   ENE   1.00  12.0    NE   57.7   58.8   58.1   61.0  30.109  0.00  0.00   168     2.41    172     0.0  0.00   0.0   0.046   0.000   70.4    61   56.3   69.8  11.23  .0742    0.003   214    5    100.0   10 
 8/16/18 10:10a   58.5   58.5   58.4    96   57.4   6.0    NE   1.00  11.0   NNE   57.8   58.9   58.2   61.3  30.110  0.00  0.00   180     2.58    197     0.0  0.00   0.0   0.045   0.000   70.4    61   56.3   69.8  11.23  .0742    0.000   212    5    100.0   10 
 8/16/18 10:20a   58.7   58.7   58.5    95   57.3   7.0    NE   1.17  12.0   ENE   57.6   59.1   58.0   61.7  30.109  0.00  0.00   209     3.00    216     0.0  0.00   0.0   0.044   0.000   70.5    61   56.4   69.9  11.23  .0742    0.000   211    5    100.0   10 
 8/16/18 10:30a   58.8   58.8   58.6    95   57.4   7.0    NE   1.17  12.0    NE   57.8   59.2   58.2   62.3  30.112  0.00  0.00   233     3.34    243     0.0  0.00   0.0   0.043   0.000   70.5    60   55.9   69.8  11.04  .0742    0.000   213    5    100.0   10 
 8/16/18 10:40a   59.1   59.1   58.8    95   57.7   6.0    NE   1.00  11.0   NNE   58.5   59.5   58.9   63.4  30.113  0.00  0.00   250     3.58    267     0.0  0.00   0.0   0.041   0.000   70.6    60   56.0   70.0  11.04  .0742    0.000   211    5    100.0   10 
 8/16/18 10:50a   59.3   59.3   59.1    95   57.9   5.0   ENE   0.83  10.0    NE   59.2   59.7   59.6   64.8  30.111  0.00  0.00   279     4.00    295     0.0  0.00   0.0   0.040   0.000   70.7    60   56.1   70.1  11.04  .0742    0.000   211    5    100.0   10 
 8/16/18 11:00a   59.6   59.6   59.3    95   58.2   6.0    NE   1.00  11.0    NE   59.1   60.0   59.5   65.2  30.114  0.00  0.00   304     4.36    325     0.0  0.00   0.0   0.038   0.000   70.8    60   56.2   70.2  11.03  .0742    0.005   212    5    100.0   10 
 8/16/18 11:10a   59.8   59.8   59.6    94   58.1   6.0    NE   1.00  12.0   NNE   59.4   60.2   59.8   65.9  30.117  0.00  0.00   329     4.72    336     0.0  0.00   0.0   0.036   0.000   70.8    60   56.2   70.2  11.03  .0742    0.000   211    5    100.0   10 
 8/16/18 11:20a   60.1   60.1   59.8    93   58.1   7.0    NE   1.17  12.0   NNE   59.3   60.5   59.7   66.4  30.118  0.00  0.00   370     5.30    396     0.0  0.00   0.0   0.034   0.000   70.9    60   56.3   70.4  11.03  .0741    0.000   212    5    100.0   10 
 8/16/18 11:30a   60.2   60.3   60.0    93   58.2   8.0    NE   1.33  13.0   NNE   58.7   60.6   59.1   65.7  30.121  0.00  0.00   383     5.49    396     0.0  0.00   0.0   0.033   0.000   71.0    60   56.4   70.5  11.03  .0741    0.000   211    5    100.0   10 
 8/16/18 11:40a   60.5   60.5   60.2    93   58.5   5.0   NNE   0.83  10.0    NE   60.5   60.9   60.9   68.1  30.121  0.00  0.00   395     5.66    446     0.0  0.00   0.0   0.031   0.000   71.0    60   56.4   70.5  11.03  .0741    0.000   209    5    100.0   10 
 8/16/18 11:50a   60.8   61.0   60.5    92   58.5   7.0    NE   1.17  12.0    NE   60.2   61.2   60.6   70.5  30.123  0.00  0.00   582     8.34    613     0.0  0.00   0.0   0.029   0.000   71.0    60   56.4   70.5  11.03  .0741    0.000   210    5    100.0   10 
 8/16/18 12:00p   61.8   61.8   60.8    92   59.5   6.0    NE   1.00  12.0    NE   61.8   62.4   62.4   71.7  30.121  0.00  0.00   525     7.53    724     0.0  0.00   0.0   0.022   0.000   71.0    60   56.4   70.5  11.03  .0741    0.009   213    5    100.0   10 
 8/16/18 12:10p   62.0   62.1   61.8    90   59.0   8.0    NE   1.33  13.0   NNE   60.9   62.5   61.4   69.7  30.122  0.00  0.00   495     7.10    547     0.0  0.00   0.0   0.021   0.000   71.0    60   56.4   70.5  11.03  .0741    0.000   213    5    100.0   10 
 8/16/18 12:20p   61.9   62.0   61.8    89   58.6   8.0   NNE   1.33  17.0   ENE   60.8   62.4   61.3   68.5  30.126  0.00  0.00   424     6.08    448     0.0  0.00   0.0   0.022   0.000   71.1    60   56.5   70.6  11.03  .0741    0.000   212    5    100.0   10 
 8/16/18 12:30p   62.3   62.3   61.8    88   58.7  10.0    NE   1.67  17.0    NE   59.7   62.8   60.2   67.9  30.129  0.00  0.00   492     7.05    563     0.0  0.00   0.0   0.019   0.000   71.1    60   56.5   70.6  11.03  .0741    0.000   213    5    100.0   10 
 8/16/18 12:40p   62.7   62.7   62.3    87   58.8   8.0   NNE   1.33  14.0   NNE   61.7   63.2   62.2   72.0  30.130  0.00  0.00   612     8.77    756     0.3  0.02   0.8   0.016   0.000   71.2    60   56.6   70.8  11.03  .0741    0.000   210    5    100.0   10 
 8/16/18 12:50p   63.1   63.2   62.7    86   58.8   8.0   NNE   1.33  14.0    NE   62.2   63.6   62.7   73.5  30.131  0.00  0.00   759    10.88    773     1.0  0.07   1.2   0.013   0.000   71.2    60   56.6   70.8  11.03  .0741    0.000   211    5    100.0   10 
 8/16/18  1:00p   63.6   63.6   63.1    86   59.3   7.0    NE   1.17  13.0   NNE   63.6   64.2   64.2   75.5  30.133  0.00  0.00   775    11.11    791     1.3  0.09   1.4   0.010   0.000   71.2    60   56.6   70.8  11.03  .0741    0.013   213    5    100.0   10 
 8/16/18  1:10p   63.9   64.0   63.6    85   59.3   8.0    NE   1.33  14.0    NE   63.1   64.5   63.7   74.6  30.133  0.00  0.00   768    11.01    779     1.3  0.09   1.4   0.008   0.000   71.3    60   56.7   70.9  11.02  .0741    0.000   211    5    100.0   10 
 8/16/18  1:20p   64.0   64.0   63.9    84   59.1   8.0    NE   1.33  14.0   NNE   63.2   64.6   63.8   74.7  30.132  0.00  0.00   765    10.97    773     1.3  0.09   1.4   0.007   0.000   71.3    60   56.7   70.9  11.02  .0741    0.000   212    5    100.0   10 
 8/16/18  1:30p   63.8   64.1   63.7    83   58.5   9.0    NE   1.50  14.0    NE   62.2   64.3   62.7   73.1  30.133  0.00  0.00   771    11.05    779     1.3  0.09   1.4   0.008   0.000   71.4    60   56.8   71.1  11.02  .0741    0.000   210    5    100.0   10 
 8/16/18  1:40p   64.3   64.3   63.8    82   58.7   8.0   NNE   1.33  15.0    NE   63.6   64.9   64.2   75.0  30.131  0.00  0.00   781    11.20    789     1.3  0.09   1.4   0.005   0.000   71.5    60   56.9   71.2  11.02  .0741    0.000   212    5    100.0   10 
 8/16/18  1:50p   64.8   64.9   64.4    81   58.8   8.0    NE   1.33  15.0    NE   64.2   65.5   64.9   75.7  30.131  0.00  0.00   788    11.30    795     1.2  0.09   1.2   0.001   0.000   71.7    60   57.1   71.5  11.02  .0740    0.000   212    5    100.0   10 
 8/16/18  2:00p   65.2   65.2   64.9    80   58.9   9.0   ENE   1.50  15.0    NE   63.8   65.9   64.5   74.9  30.128  0.00  0.00   796    11.41    812     1.0  0.07   1.2   0.000   0.001   72.0    60   57.4   71.9  11.01  .0740    0.018   213    5    100.0   10 
 8/16/18  2:10p   64.9   65.2   64.8    79   58.2   9.0    NE   1.50  16.0   ENE   63.5   65.5   64.1   74.5  30.130  0.00  0.00   780    11.18    786     0.3  0.02   0.7   0.001   0.000   72.1    59   57.0   72.0  10.87  .0740    0.000   212    5    100.0   10 
 8/16/18  2:20p   64.3   65.0   64.3    80   58.0  10.0    NE   1.67  16.0    NE   62.0   64.9   62.6   71.9  30.134  0.00  0.00   644     9.23    798     0.0  0.00   0.0   0.005   0.000   72.2    59   57.1   72.1  10.86  .0740    0.000   214    5    100.0   10 
 8/16/18  2:30p   64.0   64.4   64.0    80   57.7   9.0    NE   1.50  17.0    NE   62.4   64.5   62.9   72.2  30.136  0.00  0.00   609     8.73    795     0.0  0.00   0.0   0.007   0.000   72.4    59   57.3   72.4  10.85  .0739    0.000   208    5    100.0   10 
 8/16/18  2:40p   64.2   64.2   63.9    81   58.2   8.0    NE   1.33  14.0    NE   63.4   64.8   64.0   73.2  30.136  0.00  0.00   558     8.00    798     0.0  0.00   0.0   0.006   0.000   72.5    59   57.4   72.6  10.85  .0739    0.000   206    5     99.5   10 
 8/16/18  2:50p   63.8   64.4   63.8    80   57.5   8.0    NE   1.33  15.0    NE   63.0   64.3   63.5   70.9  30.139  0.00  0.00   432     6.19    629     0.0  0.00   0.0   0.008   0.000   72.5    59   57.4   72.6  10.85  .0739    0.000   212    5    100.0   10 
 8/16/18  3:00p   64.0   64.2   63.7    80   57.7   9.0    NE   1.50  14.0   ENE   62.4   64.5   62.9   71.9  30.138  0.00  0.00   571     8.19    668     0.0  0.00   0.0   0.007   0.000   72.4    59   57.3   72.4  10.85  .0740    0.014   211    5    100.0   10 
 8/16/18  3:10p   63.7   64.0   63.5    81   57.8  10.0    NE   1.67  16.0    NE   61.3   64.2   61.8   71.2  30.134  0.00  0.00   647     9.27    726     0.0  0.00   0.0   0.009   0.000   72.3    59   57.2   72.3  10.86  .0740    0.000   212    5    100.0   10 
 8/16/18  3:20p   63.1   63.7   63.0    81   57.2   9.0    NE   1.50  17.0   ENE   61.3   63.5   61.7   67.8  30.140  0.00  0.00   367     5.26    387     0.0  0.00   0.0   0.013   0.000   72.2    59   57.1   72.1  10.86  .0740    0.000   214    5    100.0   10 
 8/16/18  3:30p   62.9   63.1   62.9    81   57.0   8.0    NE   1.33  15.0   NNE   62.0   63.2   62.3   68.8  30.138  0.00  0.00   372     5.33    403     0.0  0.00   0.0   0.015   0.000   72.3    59   57.2   72.3  10.86  .0740    0.000   211    5    100.0   10 
 8/16/18  3:40p   63.2   63.2   62.8    82   57.6   8.0   ENE   1.33  15.0    NE   62.3   63.6   62.7   70.4  30.140  0.00  0.00   433     6.21    654     0.0  0.00   0.0   0.012   0.000   72.3    59   57.2   72.3  10.86  .0740    0.000   211    5    100.0   10 
 8/16/18  3:50p   62.9   63.2   62.9    82   57.3   9.0    NE   1.50  15.0    NE   61.1   63.3   61.5   68.0  30.138  0.00  0.00   371     5.32    429     0.0  0.00   0.0   0.015   0.000   72.3    59   57.2   72.3  10.86  .0740    0.000   212    5    100.0   10 
 8/16/18  4:00p   62.7   62.9   62.7    82   57.1   9.0   ENE   1.50  15.0   ENE   60.8   63.0   61.1   68.0  30.141  0.00  0.00   391     5.61    592     0.0  0.00   0.0   0.016   0.000   72.2    59   57.1   72.1  10.86  .0740    0.011   213    5    100.0   10 
 8/16/18  4:10p   63.8   63.8   62.8    81   57.9   9.0   ENE   1.50  16.0   NNE   62.2   64.3   62.7   72.5  30.143  0.00  0.00   608     8.72    615     0.0  0.00   0.0   0.008   0.000   72.2    59   57.1   72.1  10.86  .0740    0.000   212    5    100.0   10 
 8/16/18  4:20p   63.9   64.0   63.8    81   58.0  10.0   ENE   1.67  15.0   ENE   61.5   64.4   62.0   71.5  30.142  0.00  0.00   603     8.64    624     0.0  0.00   0.0   0.008   0.000   72.3    59   57.2   72.3  10.86  .0740    0.000   210    5    100.0   10 
 8/16/18  4:30p   64.0   64.1   63.9    80   57.7  10.0    NE   1.67  17.0    NE   61.6   64.5   62.1   71.5  30.145  0.00  0.00   587     8.41    612     0.0  0.00   0.0   0.007   0.000   72.5    59   57.4   72.6  10.85  .0739    0.000   209    5    100.0   10 
 8/16/18  4:40p   64.4   64.4   64.0    80   58.1  10.0    NE   1.67  17.0   ENE   62.1   65.0   62.7   71.9  30.147  0.00  0.00   613     8.79    622     0.0  0.00   0.0   0.004   0.000   72.7    59   57.5   72.9  10.84  .0739    0.000   213    5    100.0   10 
 8/16/18  4:50p   64.3   64.6   64.3    79   57.6  10.0    NE   1.67  17.0    NE   62.0   64.8   62.5   71.7  30.140  0.00  0.00   540     7.74    606     0.0  0.00   0.0   0.005   0.000   72.8    59   57.6   73.0  10.84  .0739    0.000   212    5    100.0   10 
 8/16/18  5:00p   64.0   64.3   64.0    79   57.4   9.0    NE   1.50  17.0   ENE   62.4   64.4   62.8   71.2  30.143  0.00  0.00   423     6.06    490     0.0  0.00   0.0   0.007   0.000   72.9    59   57.7   73.2  10.83  .0739    0.013   212    5    100.0   10 
 8/16/18  5:10p   63.2   64.0   63.2    80   56.9   9.0   ENE   1.50  16.0    NE   61.4   63.5   61.7   67.7  30.139  0.00  0.00   292     4.19    330     0.0  0.00   0.0   0.012   0.000   73.1    59   57.9   73.4  10.83  .0738    0.000   212    5    100.0   10 
 8/16/18  5:20p   62.9   63.2   62.9    80   56.6  10.0    NE   1.67  21.0   NNE   60.4   63.2   60.7   67.4  30.138  0.00  0.00   325     4.66    380     0.0  0.00   0.0   0.015   0.000   73.1    58   57.4   73.4  10.63  .0738    0.000   209    5    100.0   10 
 8/16/18  5:30p   62.2   62.8   62.2    81   56.3  10.0    NE   1.67  17.0   NNE   59.5   62.4   59.7   66.2  30.138  0.00  0.00   305     4.37    394     0.0  0.00   0.0   0.019   0.000   73.2    58   57.5   73.5  10.62  .0738    0.000   212    5    100.0   10 
 8/16/18  5:40p   61.8   62.3   61.8    82   56.2   9.0   ENE   1.50  16.0    NE   59.8   62.0   60.0   65.1  30.146  0.00  0.00   230     3.30    258     0.0  0.00   0.0   0.022   0.000   73.2    58   57.5   73.5  10.62  .0738    0.000   211    5    100.0   10 
 8/16/18  5:50p   61.5   61.8   61.4    82   56.0  10.0   ENE   1.67  18.0   ENE   58.7   61.7   58.9   62.3  30.148  0.00  0.00   166     2.38    193     0.0  0.00   0.0   0.024   0.000   73.2    58   57.5   73.5  10.62  .0739    0.000   213    5    100.0   10 
 8/16/18  6:00p   61.2   61.4   61.2    83   56.0  10.0   ENE   1.67  18.0   ENE   58.3   61.3   58.4   60.7  30.148  0.00  0.00   121     1.73    139     0.0  0.00   0.0   0.026   0.000   73.0    58   57.3   73.2  10.63  .0739    0.007   209    5    100.0   10 
 8/16/18  6:10p   61.3   61.3   61.1    84   56.4   7.0    NE   1.17  17.0    NE   60.8   61.5   61.0   64.3  30.152  0.00  0.00   136     1.95    211     0.0  0.00   0.0   0.026   0.000   72.7    58   57.1   72.8  10.64  .0740    0.000   212    5    100.0   10 
 8/16/18  6:20p   61.3   61.4   61.3    84   56.4   9.0    NE   1.50  17.0   ENE   59.2   61.5   59.4   62.6  30.152  0.00  0.00   139     1.99    190     0.0  0.00   0.0   0.026   0.000   72.6    58   57.0   72.6  10.65  .0740    0.000   209    5    100.0   10 
 8/16/18  6:30p   61.0   61.3   61.0    84   56.1   9.0   ENE   1.50  15.0   NNE   58.9   61.2   59.1   61.5  30.154  0.00  0.00   108     1.55    125     0.0  0.00   0.0   0.028   0.000   72.5    58   56.9   72.5  10.65  .0740    0.000   212    5    100.0   10 
 8/16/18  6:40p   60.5   61.0   60.5    85   56.0   9.0   ENE   1.50  15.0    NE   58.3   60.7   58.5   59.9  30.154  0.00  0.00    79     1.13    104     0.0  0.00   0.0   0.031   0.000   72.4    58   56.8   72.3  10.65  .0740    0.000   212    5    100.0   10 
 8/16/18  6:50p   60.2   60.5   60.2    85   55.7  10.0   ENE   1.67  16.0   NNE   57.2   60.3   57.3   58.0  30.151  0.00  0.00    59     0.85     70     0.0  0.00   0.0   0.033   0.000   72.3    58   56.7   72.2  10.66  .0740    0.000   212    5    100.0   10 
 8/16/18  7:00p   60.3   60.3   60.2    86   56.1   9.0   ENE   1.50  16.0   ENE   58.1   60.5   58.3   59.7  30.145  0.00  0.00    72     1.03     84     0.0  0.00   0.0   0.033   0.000   72.3    58   56.7   72.2  10.66  .0740    0.003   211    5    100.0   10 
 8/16/18  7:10p   60.7   60.7   60.3    86   56.5  10.0    NE   1.67  20.0   NNE   57.8   60.9   58.0   60.0  30.142  0.00  0.00    92     1.32    111     0.0  0.00   0.0   0.030   0.000   72.1    58   56.5   71.9  10.67  .0740    0.000   213    5    100.0   10 
 8/16/18  7:20p   61.2   61.2   60.7    85   56.7   9.0   ENE   1.50  18.0   ENE   59.1   61.4   59.3   61.9  30.149  0.00  0.00   106     1.52    113     0.0  0.00   0.0   0.026   0.000   72.1    58   56.5   71.9  10.67  .0741    0.000   212    5    100.0   10 
 8/16/18  7:30p   61.0   61.2   61.0    85   56.5   9.0   ENE   1.50  20.0     E   58.9   61.2   59.1   60.0  30.148  0.00  0.00    61     0.87     81     0.0  0.00   0.0   0.028   0.000   72.0    58   56.4   71.7  10.67  .0741    0.000   207    5    100.0   10 
 8/16/18  7:40p   60.6   60.9   60.6    85   56.1   7.0   ENE   1.17  15.0     E   59.9   60.8   60.1   58.5  30.155  0.00  0.00    39     0.56     42     0.0  0.00   0.0   0.031   0.000   71.9    58   56.3   71.6  10.67  .0741    0.000   208    5    100.0   10 
 8/16/18  7:50p   60.3   60.6   60.3    85   55.8   8.0   ENE   1.33  15.0   NNE   58.9   60.4   59.0   57.2  30.157  0.00  0.00    25     0.36     32     0.0  0.00   0.0   0.033   0.000   71.9    58   56.3   71.6  10.67  .0741    0.000   210    5    100.0   10 
 8/16/18  8:00p   60.1   60.3   60.1    86   55.9   7.0   ENE   1.17  16.0    NE   59.3   60.2   59.4   57.2  30.159  0.00  0.00    15     0.22     19     0.0  0.00   0.0   0.034   0.000   71.9    58   56.3   71.6  10.67  .0741    0.002   213    5    100.0   10 
 8/16/18  8:10p   59.8   60.1   59.8    86   55.6   8.0   ENE   1.33  18.0   ENE   58.3   59.9   58.4   56.2  30.163  0.00  0.00    11     0.16     11     0.0  0.00   0.0   0.036   0.000   72.0    58   56.4   71.7  10.67  .0741    0.000   211    5    100.0   10 
 8/16/18  8:20p   59.4   59.8   59.4    86   55.2   7.0    NE   1.17  14.0    NE   58.5   59.5   58.6   56.2  30.168  0.00  0.00     6     0.09      9     0.0  0.00   0.0   0.039   0.000   72.1    58   56.5   71.9  10.67  .0741    0.000   213    5    100.0   10 
 8/16/18  8:30p   58.7   59.4   58.7    87   54.8   7.0   ENE   1.17  12.0   ENE   57.6   58.8   57.7   55.2  30.171  0.00  0.00     1     0.01      5     0.0  0.00   0.0   0.044   0.000   72.3    58   56.7   72.2  10.66  .0741    0.000   211    5    100.0   10 
 8/16/18  8:40p   58.1   58.7   58.1    88   54.6   6.0   ENE   1.00  11.0    NE   57.3   58.1   57.3   54.7  30.176  0.00  0.00     0     0.00      0     0.0  0.00   0.0   0.048   0.000   72.5    58   56.9   72.5  10.65  .0740    0.000   213    5    100.0   10 
 8/16/18  8:50p   57.8   58.1   57.8    89   54.6   6.0   ENE   1.00  12.0    NE   57.0   57.9   57.1   54.5  30.179  0.00  0.00     0     0.00      0     0.0  0.00   0.0   0.050   0.000   72.7    58   57.1   72.8  10.64  .0740    0.000   211    5    100.0   10 
 8/16/18  9:00p   57.9   57.9   57.8    89   54.7   6.0   ENE   1.00  12.0    NE   57.1   58.0   57.2   54.6  30.182  0.00  0.00     0     0.00      0     0.0  0.00   0.0   0.049   0.000   72.8    58   57.2   72.9  10.64  .0740    0.001   212    5    100.0   10 
 8/16/18  9:10p   58.0   58.0   57.9    89   54.8   5.0   ENE   0.83  10.0   NNE   57.6   58.1   57.7   55.1  30.182  0.00  0.00     0     0.00      0     0.0  0.00   0.0   0.049   0.000   72.8    58   57.2   72.9  10.64  .0740    0.000   209    5    100.0   10 
 8/16/18  9:20p   58.0   58.0   58.0    90   55.1   5.0   ENE   0.83  13.0   ENE   57.6   58.1   57.7   55.2  30.184  0.00  0.00     0     0.00      0     0.0  0.00   0.0   0.049   0.000   72.9    58   57.3   73.1  10.63  .0740    0.000   211    5    100.0   10 
 8/16/18  9:30p   58.1   58.1   58.0    90   55.2   6.0   ENE   1.00  14.0   ENE   57.3   58.2   57.4   54.9  30.189  0.00  0.00     0     0.00      0     0.0  0.00   0.0   0.048   0.000   72.9    58   57.3   73.1  10.63  .0740    0.000   210    5    100.0   10 
 8/16/18  9:40p   58.0   58.1   58.0    90   55.1   6.0   ENE   1.00  12.0   ENE   57.2   58.1   57.3   54.8  30.190  0.00  0.00     0     0.00      0     0.0  0.00   0.0   0.049   0.000   72.9    58   57.3   73.1  10.63  .0740    0.000   214    5    100.0   10 
 8/16/18  9:50p   58.0   58.1   58.0    90   55.1   7.0   ENE   1.17  13.0   ESE   56.8   58.1   56.9   54.4  30.192  0.00  0.00     0     0.00      0     0.0  0.00   0.0   0.049   0.000   72.9    58   57.3   73.1  10.63  .0740    0.000   211    5    100.0   10 
 8/16/18 10:00p   57.9   58.0   57.8    90   55.0   6.0   ENE   1.00  13.0    NE   57.1   58.0   57.2   54.6  30.198  0.00  0.00     0     0.00      0     0.0  0.00   0.0   0.049   0.000   72.9    58   57.3   73.1  10.63  .0740    0.001   213    5    100.0   10 
 8/16/18 10:10p   57.6   57.8   57.6    90   54.7   6.0   ENE   1.00  12.0     E   56.7   57.7   56.8   54.2  30.199  0.00  0.00     0     0.00      0     0.0  0.00   0.0   0.051   0.000   73.0    58   57.3   73.2  10.63  .0740    0.000   212    5    100.0   10 
 8/16/18 10:20p   57.4   57.6   57.4    90   54.5   5.0   ENE   0.83  11.0    NE   56.9   57.5   57.0   54.4  30.202  0.00  0.00     0     0.00      0     0.0  0.00   0.0   0.053   0.000   73.0    58   57.3   73.2  10.63  .0740    0.000   212    5    100.0   10 
 8/16/18 10:30p   57.3   57.4   57.3    91   54.7   6.0   ENE   1.00  11.0    NE   56.4   57.4   56.5   53.9  30.206  0.00  0.00     0     0.00      0     0.0  0.00   0.0   0.053   0.000   72.9    58   57.3   73.1  10.63  .0741    0.000   210    5    100.0   10 
 8/16/18 10:40p   57.2   57.3   57.2    91   54.6   4.0   ENE   0.67  10.0    NE   57.2   57.3   57.3   54.7  30.207  0.00  0.00     0     0.00      0     0.0  0.00   0.0   0.054   0.000   73.0    58   57.3   73.2  10.63  .0740    0.000   211    5    100.0   10 
 8/16/18 10:50p   57.1   57.2   57.1    91   54.5   4.0   ENE   0.67  12.0   ENE   57.1   57.2   57.2   54.6  30.207  0.00  0.00     0     0.00      0     0.0  0.00   0.0   0.055   0.000   73.0    58   57.3   73.2  10.63  .0740    0.000   212    5    100.0   10 
 8/16/18 11:00p   57.1   57.1   57.1    91   54.5   5.0   ENE   0.83  11.0   ENE   56.5   57.2   56.6   54.0  30.206  0.00  0.00     0     0.00      0     0.0  0.00   0.0   0.055   0.000   73.0    58   57.3   73.2  10.63  .0740    0.001   211    5    100.0   10 
 8/16/18 11:10p   57.2   57.2   57.1    91   54.6   5.0   ENE   0.83  13.0     E   56.6   57.3   56.7   54.1  30.209  0.00  0.00     0     0.00      0     0.0  0.00   0.0   0.054   0.000   73.0    58   57.3   73.2  10.63  .0740    0.000   211    5    100.0   10 
 8/16/18 11:20p   57.1   57.2   57.1    91   54.5   6.0   ENE   1.00  13.0    NE   56.1   57.2   56.2   53.6  30.210  0.00  0.00     0     0.00      0     0.0  0.00   0.0   0.055   0.000   73.0    58   57.3   73.2  10.63  .0740    0.000   211    5    100.0   10 
 8/16/18 11:30p   57.3   57.3   57.2    91   54.7   6.0   ENE   1.00  12.0   NNE   56.4   57.4   56.5   53.9  30.211  0.00  0.00     0     0.00      0     0.0  0.00   0.0   0.053   0.000   73.0    58   57.3   73.2  10.63  .0740    0.000   212    5    100.0   10 
 8/16/18 11:40p   57.2   57.3   57.2    91   54.6   5.0   ENE   0.83  12.0    NE   56.6   57.3   56.7   54.1  30.212  0.00  0.00     0     0.00      0     0.0  0.00   0.0   0.054   0.000   72.9    58   57.3   73.1  10.63  .0741    0.000   213    5    100.0   10 
 8/16/18 11:50p   57.1   57.2   57.1    90   54.2   5.0   ENE   0.83  10.0   ENE   56.5   57.2   56.6   54.0  30.214  0.00  0.00     0     0.00      0     0.0  0.00   0.0   0.055   0.000   72.9    58   57.3   73.1  10.63  .0741    0.000   211    5    100.0   10 
 8/17/18 12:00a   57.1   57.1   57.0    91   54.5   5.0   ENE   0.83  13.0    NE   56.5   57.2   56.6   54.0  30.214  0.00  0.00     0     0.00      0     0.0  0.00   0.0   0.055   0.000   72.9    58   57.3   73.1  10.63  .0741    0.001   210    5    100.0   10 
 8/17/18 12:10a   57.1   57.1   57.0    91   54.5   5.0   ENE   0.83  13.0     E   56.5   57.2   56.6   54.0  30.216  0.00  0.00     0     0.00      0     0.0  0.00   0.0   0.055   0.000   72.9    58   57.3   73.1  10.63  .0741    0.000   213    5    100.0   10 
 8/17/18 12:20a   57.0   57.1   57.0    91   54.4   5.0   ENE   0.83  13.0    NE   56.4   57.1   56.5   53.9  30.217  0.00  0.00     0     0.00      0     0.0  0.00   0.0   0.056   0.000   72.9    58   57.3   73.1  10.63  .0741    0.000   211    5    100.0   10 
 8/17/18 12:30a   57.0   57.0   56.9    91   54.4   5.0   ENE   0.83  12.0    NE   56.4   57.1   56.5   53.9  30.213  0.00  0.00     0     0.00      0     0.0  0.00   0.0   0.056   0.000   72.9    58   57.3   73.1  10.63  .0741    0.000   212    5    100.0   10 
 8/17/18 12:40a   57.0   57.0   56.9    91   54.4   6.0   ENE   1.00  14.0   ENE   56.0   57.1   56.1   53.5  30.216  0.00  0.00     0     0.00      0     0.0  0.00   0.0   0.056   0.000   72.9    58   57.3   73.1  10.63  .0741    0.000   212    5    100.0   10 
 8/17/18 12:50a   56.9   57.0   56.9    90   54.0   5.0   ENE   0.83  10.0    NE   56.3   57.0   56.4   53.8  30.217  0.00  0.00     0     0.00      0     0.0  0.00   0.0   0.056   0.000   72.9    58   57.3   73.1  10.63  .0741    0.000   211    5    100.0   10 
 8/17/18  1:00a   56.8   57.0   56.8    90   53.9   4.0   ENE   0.67   9.0     E   56.8   56.9   56.9   54.3  30.217  0.00  0.00     0     0.00      0     0.0  0.00   0.0   0.057   0.000   72.9    58   57.3   73.1  10.63  .0741    0.001   211    5    100.0   10 
 8/17/18  1:10a   56.6   56.8   56.6    90   53.7   4.0   ENE   0.67   8.0   ENE   56.5   56.7   56.6   54.0  30.217  0.00  0.00     0     0.00      0     0.0  0.00   0.0   0.058   0.000   72.8    58   57.2   72.9  10.64  .0741    0.000   213    5    100.0   10 
 8/17/18  1:20a   56.5   56.6   56.5    90   53.6   3.0   ENE   0.50   9.0   NNE   56.5   56.6   56.6   54.0  30.220  0.00  0.00     0     0.00      0     0.0  0.00   0.0   0.059   0.000   72.8    58   57.2   72.9  10.64  .0741    0.000   212    5    100.0   10 
 8/17/18  1:30a   56.3   56.5   56.3    90   53.4   3.0   ENE   0.50   9.0   ENE   56.3   56.4   56.4   53.8  30.221  0.00  0.00     0     0.00      0     0.0  0.00   0.0   0.060   0.000   72.8    58   57.2   72.9  10.64  .0741    0.000   210    5    100.0   10 
 8/17/18  1:40a   56.3   56.4   56.3    90   53.4   4.0   ENE   0.67  10.0    NE   56.2   56.4   56.3   53.7  30.221  0.00  0.00     0     0.00      0     0.0  0.00   0.0   0.060   0.000   72.7    58   57.1   72.8  10.64  .0741    0.000   212    5    100.0   10 
 8/17/18  1:50a   56.2   56.4   56.2    90   53.3   3.0   ENE   0.50   8.0     E   56.2   56.3   56.3   53.7  30.222  0.00  0.00     0     0.00      0     0.0  0.00   0.0   0.061   0.000   72.7    58   57.1   72.8  10.64  .0741    0.000   211    5    100.0   10 
 8/17/18  2:00a   55.9   56.2   55.9    89   52.7   3.0   ENE   0.50   8.0   ENE   55.9   56.0   56.0   53.4  30.223  0.00  0.00     0     0.00      0     0.0  0.00   0.0   0.063   0.000   72.7    58   57.1   72.8  10.64  .0741    0.000   210    5    100.0   10 
 8/17/18  2:10a   55.6   55.9   55.6    90   52.7   3.0   ENE   0.50   6.0   ENE   55.6   55.7   55.7   53.1  30.224  0.00  0.00     0     0.00      0     0.0  0.00   0.0   0.065   0.000   72.7    58   57.1   72.8  10.64  .0741    0.000   213    5    100.0   10 
 8/17/18  2:20a   55.7   55.7   55.5    90   52.8   3.0   ENE   0.50   8.0   ENE   55.7   55.8   55.8   53.2  30.224  0.00  0.00     0     0.00      0     0.0  0.00   0.0   0.065   0.000   72.6    58   57.0   72.6  10.65  .0741    0.000   213    5    100.0   10 
 8/17/18  2:30a   55.7   55.7   55.6    90   52.8   3.0   ENE   0.50  12.0   ENE   55.7   55.8   55.8   53.2  30.225  0.00  0.00     0     0.00      0     0.0  0.00   0.0   0.065   0.000   72.6    58   57.0   72.6  10.65  .0742    0.000   214    5    100.0   10 
 8/17/18  2:40a   56.1   56.1   55.7    90   53.2   5.0   ENE   0.83  13.0    NE   55.4   56.2   55.5   52.9  30.224  0.00  0.00     0     0.00      0     0.0  0.00   0.0   0.062   0.000   72.6    58   57.0   72.6  10.65  .0741    0.000   211    5    100.0   10 
 8/17/18  2:50a   56.6   56.6   56.2    89   53.4   7.0   ENE   1.17  16.0    NE   55.1   56.7   55.2   52.6  30.224  0.00  0.00     0     0.00      0     0.0  0.00   0.0   0.058   0.000   72.5    58   56.9   72.5  10.65  .0742    0.000   211    5    100.0   10 
 8/17/18  3:00a   56.8   56.8   56.6    89   53.6   6.0     E   1.00  14.0    NE   55.8   56.9   55.9   53.3  30.223  0.00  0.00     0     0.00      0     0.0  0.00   0.0   0.057   0.000   72.5    58   56.9   72.5  10.65  .0742    0.001   212    5    100.0   10 
 8/17/18  3:10a   56.7   56.8   56.7    88   53.2   5.0   ENE   0.83  12.0   ENE   56.1   56.7   56.1   53.5  30.222  0.00  0.00     0     0.00      0     0.0  0.00   0.0   0.058   0.000   72.4    58   56.8   72.3  10.65  .0742    0.000   213    5    100.0   10 
 8/17/18  3:20a   56.6   56.7   56.6    88   53.1   5.0   ENE   0.83  14.0   ENE   56.0   56.6   56.0   53.4  30.220  0.00  0.00     0     0.00      0     0.0  0.00   0.0   0.058   0.000   72.4    58   56.8   72.3  10.65  .0742    0.000   211    5    100.0   10 
 8/17/18  3:30a   56.8   56.8   56.6    88   53.3   6.0     E   1.00  12.0   ENE   55.8   56.8   55.8   53.2  30.219  0.00  0.00     0     0.00      0     0.0  0.00   0.0   0.057   0.000   72.4    58   56.8   72.3  10.65  .0742    0.000   213    5    100.0   10 
 8/17/18  3:40a   57.1   57.1   56.8    87   53.3   7.0     E   1.17  14.0    NE   55.7   57.1   55.7   53.1  30.219  0.00  0.00     0     0.00      0     0.0  0.00   0.0   0.055   0.000   72.4    58   56.8   72.3  10.65  .0742    0.000   211    5    100.0   10 
 8/17/18  3:50a   57.2   57.2   57.1    87   53.4   6.0     E   1.00  14.0     E   56.2   57.2   56.2   53.6  30.218  0.00  0.00     0     0.00      0     0.0  0.00   0.0   0.054   0.000   72.3    58   56.7   72.2  10.66  .0742    0.000   210    5    100.0   10 
 8/17/18  4:00a   57.1   57.2   57.1    86   53.0   5.0   ENE   0.83  14.0    NE   56.5   57.0   56.4   53.8  30.219  0.00  0.00     0     0.00      0     0.0  0.00   0.0   0.055   0.000   72.3    58   56.7   72.2  10.66  .0742    0.001   210    5    100.0   10 
 8/17/18  4:10a   57.0   57.1   57.0    86   52.9   6.0   ENE   1.00  10.0     E   56.0   56.9   55.9   53.3  30.221  0.00  0.00     0     0.00      0     0.0  0.00   0.0   0.056   0.000   72.3    58   56.7   72.2  10.66  .0742    0.000   211    5    100.0   10 
 8/17/18  4:20a   57.0   57.0   56.9    86   52.9   6.0     E   1.00  11.0   ENE   56.0   56.9   55.9   53.3  30.223  0.00  0.00     0     0.00      0     0.0  0.00   0.0   0.056   0.000   72.2    58   56.6   72.0  10.66  .0742    0.000   208    5    100.0   10 
 8/17/18  4:30a   57.0   57.1   57.0    86   52.9   5.0     E   0.83  13.0   ENE   56.4   56.9   56.3   53.7  30.223  0.00  0.00     0     0.00      0     0.0  0.00   0.0   0.056   0.000   72.2    58   56.6   72.0  10.66  .0742    0.000   212    5    100.0   10 
Email: AdamSPAM@StormwatchersRetreat.com (To send me email remove the word 'SPAM' from my email address.)